Time;durP1;ratioP1;P1;durP2;ratioP2;P2;SDS_P1;SDS_P2;PMS_P1;PMS_P2;Temp;Humidity;BMP_temperature;BMP_pressure;BME280_temperature;BME280_humidity;BME280_pressure;Samples;Min_cycle;Max_cycle;Signal;HPM_P1;HPM_P2
2022/10/14 00:01:56;;;;;;;15.97;7.10;;;;;;;19.47;nan;102020.97;6195253;23;20486;-89
2022/10/14 00:04:24;;;;;;;17.37;7.80;;;;;;;19.48;nan;102021.84;6219634;23;20933;-87
2022/10/14 00:06:52;;;;;;;15.73;7.70;;;;;;;19.46;nan;102018.44;6195032;23;20489;-87
2022/10/14 00:09:20;;;;;;;22.73;7.93;;;;;;;19.42;nan;102003.34;6244151;23;20411;-87
2022/10/14 00:11:48;;;;;;;21.60;7.67;;;;;;;19.41;nan;102004.41;6219043;23;20477;-88
2022/10/14 00:21:17;;;;;;;24.87;7.90;;;;;;;19.35;nan;101995.03;6247492;22;20419;-94
2022/10/14 00:27:46;;;;;;;28.10;7.83;;;;;;;19.35;nan;101995.03;6246847;23;20480;-95
2022/10/14 00:30:41;;;;;;;19.67;8.73;;;;;;;19.33;nan;101991.63;6223800;23;20421;-95
2022/10/14 00:33:38;;;;;;;16.97;7.90;;;;;;;19.30;nan;101994.84;6246039;23;20410;-94
2022/10/14 00:36:31;;;;;;;25.83;9.00;;;;;;;19.26;nan;101986.13;6223851;23;20410;-95
2022/10/14 00:39:39;;;;;;;19.40;7.87;;;;;;;19.23;nan;101989.34;6248195;23;20754;-96
2022/10/14 00:45:53;;;;;;;27.70;8.10;;;;;;;19.16;nan;101974.66;6251226;23;20481;-95
2022/10/14 00:52:21;;;;;;;21.50;8.63;;;;;;;19.16;nan;101977.44;6251172;23;20702;-95
2022/10/14 00:58:36;;;;;;;14.80;7.57;;;;;;;19.05;nan;101953.16;6248304;23;20390;-95
2022/10/14 01:01:42;;;;;;;20.23;8.23;;;;;;;19.12;nan;101958.69;6198806;23;20421;-95
2022/10/14 01:07:57;;;;;;;26.20;8.33;;;;;;;19.09;nan;101968.28;6250215;23;20721;-94
2022/10/14 01:21:17;;;;;;;16.90;7.37;;;;;;;18.80;nan;101974.38;6250666;23;20436;-96
2022/10/14 01:40:23;;;;;;;19.10;7.00;;;;;;;18.42;nan;101979.78;6251813;23;20436;-96
2022/10/14 01:50:59;;;;;;;23.43;6.77;;;;;;;18.18;nan;101970.22;6157573;23;20504;-95
2022/10/14 02:08:49;;;;;;;15.53;7.73;;;;;;;18.02;nan;101949.38;6068657;23;20411;-95
2022/10/14 02:11:24;;;;;;;19.67;7.47;;;;;;;17.89;nan;101933.63;6024501;23;20415;-96
2022/10/14 02:17:56;;;;;;;21.33;7.60;;;;;;;17.80;nan;101932.13;6126061;23;20482;-94
2022/10/14 02:21:00;;;;;;;20.77;7.10;;;;;;;17.90;nan;101946.38;6060180;23;20421;-94
2022/10/14 02:23:42;;;;;;;26.17;7.60;;;;;;;17.73;nan;101928.50;6106187;23;20510;-96
2022/10/14 02:26:57;;;;;;;25.30;7.97;;;;;;;17.88;nan;101945.75;6081628;23;20418;-95
2022/10/14 02:29:25;;;;;;;25.83;9.87;;;;;;;17.79;nan;101937.88;6107062;23;20417;-96
2022/10/14 02:36:50;;;;;;;16.83;7.17;;;;;;;17.74;nan;101941.28;6250990;23;20381;-95
2022/10/14 02:40:14;;;;;;;18.67;7.77;;;;;;;17.66;nan;101941.50;6253285;23;20416;-95
2022/10/14 02:43:36;;;;;;;17.73;7.10;;;;;;;17.61;nan;101933.78;6250480;23;20382;-96
2022/10/14 02:50:37;;;;;;;17.70;7.13;;;;;;;17.44;nan;101923.34;6252520;23;20447;-96
2022/10/14 02:54:10;;;;;;;25.60;7.67;;;;;;;17.39;nan;101926.75;6250267;23;20417;-96
2022/10/14 02:57:32;;;;;;;16.80;8.17;;;;;;;17.34;nan;101928.41;6253497;23;20501;-96
2022/10/14 03:01:05;;;;;;;21.13;7.10;;;;;;;17.35;nan;101932.88;6252316;23;20407;-95
2022/10/14 03:11:33;;;;;;;17.50;7.30;;;;;;;17.27;nan;101915.47;6253814;23;20422;-96
2022/10/14 03:14:13;;;;;;;24.83;7.63;;;;;;;17.33;nan;101912.91;6224279;23;20402;-96
2022/10/14 03:23:45;;;;;;;18.03;6.47;;;;;;;17.12;nan;101884.41;6249921;23;20362;-96
2022/10/14 03:29:56;;;;;;;15.43;7.20;;;;;;;17.16;nan;101899.47;6250938;23;20421;-96
2022/10/14 03:32:27;;;;;;;18.40;6.17;;;;;;;17.11;nan;101893.75;6200455;23;20460;-95
2022/10/14 03:35:06;;;;;;;12.33;6.83;;;;;;;17.11;nan;101895.66;6173669;23;20405;-96
2022/10/14 03:37:46;;;;;;;16.77;6.63;;;;;;;17.08;nan;101891.41;6224237;23;20414;-96
2022/10/14 03:51:51;;;;;;;20.20;6.70;;;;;;;16.94;nan;101895.16;6250133;23;20899;-96
2022/10/14 03:54:23;;;;;;;14.17;5.77;;;;;;;16.91;nan;101888.19;6132602;23;20456;-95
2022/10/14 03:57:21;;;;;;;13.03;6.03;;;;;;;16.95;nan;101905.16;6106970;23;20413;-95
2022/10/14 03:59:56;;;;;;;14.97;6.00;;;;;;;16.88;nan;101890.50;6106603;23;20508;-94
2022/10/14 04:02:51;;;;;;;16.07;6.80;;;;;;;16.91;nan;101904.75;6107699;23;20417;-96
2022/10/14 04:05:19;;;;;;;12.70;6.00;;;;;;;16.78;nan;101888.09;6164003;23;20449;-95
2022/10/14 04:07:53;;;;;;;12.37;6.00;;;;;;;16.78;nan;101884.50;6197653;23;20419;-95
2022/10/14 04:10:38;;;;;;;15.10;6.90;;;;;;;16.75;nan;101884.91;6225553;23;20411;-95
2022/10/14 04:13:24;;;;;;;12.50;5.57;;;;;;;16.68;nan;101873.84;6204154;23;20417;-96
2022/10/14 04:20:40;;;;;;;10.47;5.47;;;;;;;16.71;nan;101895.53;6252531;23;20359;-95
2022/10/14 04:23:37;;;;;;;15.17;5.93;;;;;;;16.70;nan;101885.53;6252360;22;20420;-96
2022/10/14 04:26:54;;;;;;;12.80;6.60;;;;;;;16.68;nan;101895.09;6231415;23;20443;-96
2022/10/14 04:29:30;;;;;;;13.77;6.33;;;;;;;16.65;nan;101901.00;6252992;23;20402;-96
2022/10/14 04:31:59;;;;;;;13.33;6.77;;;;;;;16.52;nan;101886.06;6177278;23;20421;-96
2022/10/14 04:34:51;;;;;;;13.70;6.50;;;;;;;16.50;nan;101881.81;6175083;23;20760;-96
2022/10/14 04:37:41;;;;;;;14.53;5.83;;;;;;;16.57;nan;101886.28;6161938;23;20791;-95
2022/10/14 04:40:25;;;;;;;;;;;;;;;;;;;;;
2022/10/14 04:43:09;;;;;;;9.00;5.47;;;;;;;16.44;nan;101875.19;6208329;23;20411;-96
2022/10/14 04:45:53;;;;;;;8.83;5.13;;;;;;;16.46;nan;101875.00;6202847;23;20434;-96
2022/10/14 04:48:29;;;;;;;9.70;5.50;;;;;;;16.39;nan;101863.91;6184996;23;20415;-95
2022/10/14 04:51:33;;;;;;;11.57;5.30;;;;;;;16.46;nan;101886.88;6175983;23;20411;-94
2022/10/14 04:54:08;;;;;;;12.07;5.37;;;;;;;16.35;nan;101861.78;6225400;23;20411;-95
2022/10/14 04:56:56;;;;;;;13.90;5.33;;;;;;;16.37;nan;101859.66;6185591;23;20468;-96
2022/10/14 04:59:45;;;;;;;13.03;5.20;;;;;;;16.46;nan;101875.84;6182499;23;20481;-96
2022/10/14 05:02:34;;;;;;;20.13;5.60;;;;;;;16.41;nan;101875.59;6205658;23;20416;-96
2022/10/14 05:05:20;;;;;;;16.17;5.00;;;;;;;16.41;nan;101872.84;6204237;23;20750;-96
2022/10/14 05:08:35;;;;;;;13.13;5.57;;;;;;;16.38;nan;101866.88;6200114;23;20413;-95
2022/10/14 05:11:04;;;;;;;11.13;5.03;;;;;;;16.31;nan;101866.84;6221774;23;20417;-92
2022/10/14 05:13:59;;;;;;;10.47;5.37;;;;;;;16.29;nan;101868.97;6198545;23;20465;-95
2022/10/14 05:16:27;;;;;;;9.93;5.23;;;;;;;16.23;nan;101873.38;6222187;23;20410;-96
2022/10/14 05:19:11;;;;;;;16.23;5.60;;;;;;;16.14;nan;101865.50;6174594;23;20412;-95
2022/10/14 05:25:20;;;;;;;12.37;5.30;;;;;;;16.13;nan;101870.16;6249147;23;20911;-93
2022/10/14 05:31:54;;;;;;;13.30;5.03;;;;;;;16.13;nan;101874.81;6247442;23;20437;-95
2022/10/14 05:34:24;;;;;;;12.40;5.67;;;;;;;16.01;nan;101865.38;6197611;23;20972;-95
2022/10/14 05:37:45;;;;;;;14.27;6.63;;;;;;;16.05;nan;101883.25;6172791;23;20418;-94
2022/10/14 05:40:14;;;;;;;8.80;5.77;;;;;;;15.99;nan;101884.03;6222724;23;20387;-94
2022/10/14 05:53:09;;;;;;;9.80;5.37;;;;;;;15.86;nan;101874.63;6011799;23;20465;-94
2022/10/14 06:03:20;;;;;;;12.07;5.70;;;;;;;15.80;nan;101886.44;6011067;23;20776;-94
2022/10/14 06:09:46;;;;;;;23.53;6.10;;;;;;;15.78;nan;101876.66;6011244;23;20908;-92
2022/10/14 06:16:39;;;;;;;10.67;5.80;;;;;;;15.78;nan;101882.19;6011346;23;20365;-90
2022/10/14 06:19:32;;;;;;;7.83;4.90;;;;;;;15.62;nan;101854.91;5989156;23;20481;-89
2022/10/14 06:22:14;;;;;;;8.50;4.97;;;;;;;15.59;nan;101855.34;5906947;24;20427;-91
2022/10/14 06:28:40;;;;;;;16.60;5.53;;;;;;;15.66;nan;101878.28;6154566;23;20418;-88
2022/10/14 06:31:09;;;;;;;10.90;4.50;;;;;;;15.70;nan;101879.59;6130292;23;20437;-89
2022/10/14 06:33:52;;;;;;;8.43;4.67;;;;;;;15.56;nan;101856.59;6155126;23;20415;-87
2022/10/14 06:36:21;;;;;;;9.50;5.07;;;;;;;15.71;nan;101871.13;6171867;23;20489;-87
2022/10/14 06:38:54;;;;;;;9.03;5.50;;;;;;;15.63;nan;101856.63;6172495;23;20407;-87
2022/10/14 06:41:24;;;;;;;10.77;5.03;;;;;;;15.65;nan;101866.41;6221333;23;20478;-88
2022/10/14 06:44:17;;;;;;;10.03;5.43;;;;;;;15.65;nan;101866.41;6194134;23;20406;-88
2022/10/14 06:46:58;;;;;;;8.43;4.60;;;;;;;15.55;nan;101854.84;6222013;23;20944;-87
2022/10/14 06:49:55;;;;;;;24.40;6.43;;;;;;;15.54;nan;101865.03;6217027;23;20407;-87
2022/10/14 06:52:35;;;;;;;21.67;6.40;;;;;;;15.47;nan;101871.53;6196524;23;20406;-87
2022/10/14 06:55:19;;;;;;;19.60;6.03;;;;;;;15.55;nan;101882.41;6219094;23;20412;-88
2022/10/14 06:57:58;;;;;;;11.03;5.47;;;;;;;15.43;nan;101871.06;6220058;23;20406;-87
2022/10/14 07:00:26;;;;;;;17.87;5.83;;;;;;;15.51;nan;101889.38;6219622;23;20394;-87
2022/10/14 07:02:58;;;;;;;13.60;5.40;;;;;;;15.48;nan;101882.34;6245840;23;20411;-88
2022/10/14 07:05:27;;;;;;;12.50;5.50;;;;;;;15.53;nan;101890.88;6123830;23;20486;-86
2022/10/14 07:07:56;;;;;;;16.90;5.73;;;;;;;15.55;nan;101882.41;6076604;23;20509;-87
2022/10/14 07:10:27;;;;;;;11.47;5.57;;;;;;;15.56;nan;101881.41;6087513;23;20402;-87
2022/10/14 07:13:02;;;;;;;12.50;5.50;;;;;;;15.57;nan;101880.34;6076318;23;20398;-87
2022/10/14 07:15:30;;;;;;;17.00;5.77;;;;;;;15.58;nan;101876.53;6052747;23;20394;-87
2022/10/14 07:18:50;;;;;;;14.00;5.80;;;;;;;15.59;nan;101864.44;6100084;23;20502;-89
2022/10/14 07:21:18;;;;;;;;;;;;;;;;;;;;;
2022/10/14 07:24:09;;;;;;;18.60;6.20;;;;;;;15.69;nan;101864.97;6159086;23;20407;-88
2022/10/14 07:27:03;;;;;;;13.80;6.10;;;;;;;15.78;nan;101879.44;6186313;23;20394;-89
2022/10/14 07:29:35;;;;;;;11.30;5.67;;;;;;;15.81;nan;101879.88;6195530;23;20407;-88
2022/10/14 07:32:05;;;;;;;18.13;6.30;;;;;;;15.98;nan;101896.13;6190017;23;20437;-89
2022/10/14 07:34:39;;;;;;;20.50;7.70;;;;;;;16.04;nan;101900.84;6189101;23;20419;-89
2022/10/14 07:37:07;;;;;;;13.23;6.60;;;;;;;16.07;nan;101897.69;6165574;23;20728;-89
2022/10/14 07:39:34;;;;;;;16.60;7.07;;;;;;;16.10;nan;101898.13;6165475;23;20487;-89
2022/10/14 07:42:03;;;;;;;16.10;6.90;;;;;;;16.14;nan;101893.06;6165085;23;20491;-89
2022/10/14 07:44:33;;;;;;;15.87;6.90;;;;;;;16.19;nan;101901.56;6189745;23;20883;-89
2022/10/14 07:47:02;;;;;;;28.50;6.50;;;;;;;16.29;nan;101907.59;6189450;23;20722;-89
2022/10/14 07:49:30;;;;;;;19.90;5.83;;;;;;;16.34;nan;101902.31;6165889;23;20582;-88
2022/10/14 07:51:57;;;;;;;20.43;6.63;;;;;;;16.43;nan;101909.38;6165024;23;20408;-89
2022/10/14 07:54:31;;;;;;;16.53;6.13;;;;;;;16.48;nan;101909.63;6189601;23;20402;-89
2022/10/14 07:56:59;;;;;;;22.83;6.20;;;;;;;16.52;nan;101902.63;6190147;23;20478;-89
2022/10/14 07:59:26;;;;;;;18.67;6.87;;;;;;;16.67;nan;101916.31;6164915;23;20411;-89
2022/10/14 08:02:03;;;;;;;17.43;7.50;;;;;;;16.72;nan;101904.66;6190659;23;21021;-93
2022/10/14 08:04:42;;;;;;;12.73;6.57;;;;;;;16.82;nan;101919.78;6165361;23;20407;-94
2022/10/14 08:07:25;;;;;;;22.33;7.87;;;;;;;16.89;nan;101909.63;6190602;23;20463;-94
2022/10/14 08:09:59;;;;;;;20.43;8.23;;;;;;;16.92;nan;101897.31;6191096;23;20510;-94
2022/10/14 08:12:28;;;;;;;19.13;7.80;;;;;;;17.09;nan;101917.97;6191031;23;20474;-93
2022/10/14 08:15:01;;;;;;;19.70;7.63;;;;;;;17.23;nan;101916.94;6166050;23;20785;-94
2022/10/14 08:17:41;;;;;;;19.67;7.23;;;;;;;17.32;nan;101914.00;6190250;23;20400;-93
2022/10/14 08:20:11;;;;;;;18.07;6.93;;;;;;;17.41;nan;101921.84;6190102;23;20469;-94
2022/10/14 08:23:05;;;;;;;19.80;8.10;;;;;;;17.58;nan;101930.59;6189897;23;20407;-94
2022/10/14 08:25:35;;;;;;;18.57;7.40;;;;;;;17.68;nan;101933.84;6190608;23;20515;-94
2022/10/14 08:28:04;;;;;;;17.33;6.73;;;;;;;17.79;nan;101929.56;6165797;23;20415;-93
2022/10/14 08:30:47;;;;;;;27.93;7.10;;;;;;;17.94;nan;101944.91;6168737;23;20897;-93
2022/10/14 08:33:20;;;;;;;19.70;6.83;;;;;;;18.08;nan;101943.00;6142615;23;20713;-95
2022/10/14 08:35:48;;;;;;;13.23;5.90;;;;;;;18.20;nan;101940.41;6142051;23;20391;-88
2022/10/14 08:38:23;;;;;;;18.97;5.50;;;;;;;18.30;nan;101938.03;6143235;23;20438;-88
2022/10/14 08:41:14;;;;;;;20.17;7.03;;;;;;;18.50;nan;101947.16;6190305;23;20894;-87
2022/10/14 08:43:47;;;;;;;34.77;7.37;;;;;;;18.69;nan;101953.75;6189352;23;20408;-87
2022/10/14 08:46:23;;;;;;;23.03;5.40;;;;;;;18.84;nan;101931.34;6189312;23;20569;-90
2022/10/14 08:48:54;;;;;;;25.07;5.57;;;;;;;19.00;nan;101941.06;6165640;23;20506;-90
2022/10/14 08:51:24;;;;;;;14.07;5.10;;;;;;;19.16;nan;101941.41;6165531;23;20407;-90
2022/10/14 08:53:55;;;;;;;10.83;4.47;;;;;;;19.30;nan;101937.47;6188816;23;20902;-89
2022/10/14 08:56:24;;;;;;;15.40;5.20;;;;;;;19.54;nan;101946.09;6141346;23;20467;-90
2022/10/14 08:58:53;;;;;;;8.00;3.80;;;;;;;19.74;nan;101945.97;6164742;23;20461;-89
2022/10/14 09:01:46;;;;;;;11.67;4.90;;;;;;;19.95;nan;101940.03;6141239;23;20483;-89
2022/10/14 09:04:14;;;;;;;12.43;4.37;;;;;;;20.13;nan;101942.00;6143116;23;20981;-89
2022/10/14 09:06:43;;;;;;;11.87;4.33;;;;;;;20.28;nan;101939.72;6051977;23;21068;-90
2022/10/14 09:09:11;;;;;;;9.90;3.53;;;;;;;20.44;nan;101949.41;6052334;23;20497;-89
2022/10/14 09:11:44;;;;;;;11.60;3.57;;;;;;;20.58;nan;101946.28;6099576;23;20414;-90
2022/10/14 09:14:15;;;;;;;15.90;3.77;;;;;;;20.68;nan;101941.00;6052037;23;20823;-89
2022/10/14 09:16:44;;;;;;;15.03;4.07;;;;;;;20.83;nan;101942.53;6052636;23;20541;-89
2022/10/14 09:19:21;;;;;;;6.93;2.70;;;;;;;21.02;nan;101947.00;6099771;23;20422;-89
2022/10/14 09:21:54;;;;;;;7.13;2.33;;;;;;;21.12;nan;101936.19;6077106;23;20417;-89
2022/10/14 09:24:35;;;;;;;13.03;3.00;;;;;;;21.24;nan;101951.03;6075844;23;21032;-89
2022/10/14 09:27:10;;;;;;;11.73;2.90;;;;;;;21.40;nan;101943.94;6099705;23;20759;-88
2022/10/14 09:29:52;;;;;;;8.13;2.73;;;;;;;21.52;nan;101939.28;6099873;23;20488;-89
2022/10/14 09:32:42;;;;;;;9.17;2.70;;;;;;;21.67;nan;101947.19;6194987;23;20514;-89
2022/10/14 09:35:32;;;;;;;10.23;2.70;;;;;;;21.83;nan;101935.34;6169042;23;20530;-89
2022/10/14 09:38:01;;;;;;;5.40;2.13;;;;;;;21.93;nan;101937.56;6193168;23;20414;-89
2022/10/14 09:40:33;;;;;;;9.20;2.43;;;;;;;22.06;nan;101937.34;6194989;23;20509;-91
2022/10/14 09:43:25;;;;;;;6.63;2.90;;;;;;;22.21;nan;101939.66;6245693;22;20977;-91
2022/10/14 09:46:09;;;;;;;13.20;2.40;;;;;;;22.35;nan;101949.47;6246238;23;20553;-91
2022/10/14 09:48:51;;;;;;;10.43;2.60;;;;;;;22.48;nan;101943.66;6197642;23;20411;-91
2022/10/14 09:51:23;;;;;;;7.00;2.63;;;;;;;22.59;nan;101945.56;6125570;23;20485;-91
2022/10/14 09:53:58;;;;;;;13.53;2.70;;;;;;;22.69;nan;101948.59;6101742;23;20493;-91
2022/10/14 09:56:30;;;;;;;10.40;2.57;;;;;;;22.80;nan;101946.06;6101870;23;20493;-91
2022/10/14 09:59:00;;;;;;;9.40;2.30;;;;;;;22.86;nan;101945.94;6101695;23;20458;-91
2022/10/14 10:01:49;;;;;;;6.40;2.33;;;;;;;23.01;nan;101950.97;6101570;23;20639;-91
2022/10/14 10:04:46;;;;;;;9.97;2.47;;;;;;;23.15;nan;101946.78;6101161;23;20460;-91
2022/10/14 10:07:27;;;;;;;9.27;2.93;;;;;;;23.27;nan;101933.66;6101372;23;20969;-91
2022/10/14 10:09:56;;;;;;;8.30;2.23;;;;;;;23.43;nan;101940.38;6183547;23;20897;-90
2022/10/14 10:12:33;;;;;;;21.50;2.47;;;;;;;23.54;nan;101938.63;6195971;23;20406;-91
2022/10/14 10:15:04;;;;;;;17.20;3.23;;;;;;;23.63;nan;101939.94;6221678;23;20406;-91
2022/10/14 10:17:39;;;;;;;13.57;2.80;;;;;;;23.69;nan;101930.53;6221194;23;20798;-91
2022/10/14 10:20:32;;;;;;;12.33;2.50;;;;;;;23.86;nan;101928.59;6245673;23;20391;-91
2022/10/14 10:23:25;;;;;;;9.07;2.23;;;;;;;23.98;nan;101934.13;6245493;23;20489;-91
2022/10/14 10:25:56;;;;;;;14.40;3.20;;;;;;;24.05;nan;101924.44;6221396;23;20498;-91
2022/10/14 10:28:30;;;;;;;9.37;2.80;;;;;;;24.07;nan;101907.44;6220977;23;20509;-91
2022/10/14 10:31:27;;;;;;;13.93;2.40;;;;;;;24.27;nan;101920.91;6196871;23;20404;-90
2022/10/14 10:34:33;;;;;;;6.53;2.00;;;;;;;24.39;nan;101925.31;6086321;23;20406;-90
2022/10/14 10:37:25;;;;;;;10.70;2.40;;;;;;;24.45;nan;101924.25;6123787;23;20481;-90
2022/10/14 10:40:19;;;;;;;7.60;2.43;;;;;;;24.57;nan;101915.78;6125072;23;20897;-88
2022/10/14 10:43:11;;;;;;;8.93;2.00;;;;;;;24.68;nan;101906.41;6101319;23;20471;-89
2022/10/14 10:45:44;;;;;;;15.53;5.23;;;;;;;24.84;nan;101914.97;6105161;23;20538;-89
2022/10/14 10:48:39;;;;;;;7.13;3.43;;;;;;;24.96;nan;101898.97;6125328;23;20498;-93
2022/10/14 10:51:29;;;;;;;4.63;2.60;;;;;;;25.08;nan;101900.50;6103073;23;20494;-87
2022/10/14 10:54:06;;;;;;;16.20;6.90;;;;;;;25.23;nan;101891.41;6124527;23;20410;-88
2022/10/14 10:56:38;;;;;;;24.33;9.40;;;;;;;25.36;nan;101891.00;6124535;23;20410;-87
2022/10/14 10:59:24;;;;;;;16.13;6.63;;;;;;;25.52;nan;101896.75;6100300;23;20433;-86
2022/10/14 11:02:14;;;;;;;20.33;5.30;;;;;;;25.64;nan;101892.69;6077075;23;20485;-86
2022/10/14 11:04:47;;;;;;;11.73;4.20;;;;;;;25.75;nan;101890.84;6100719;23;20497;-86
2022/10/14 11:13:36;;;;;;;9.37;2.50;;;;;;;26.07;nan;101880.44;6237403;23;20735;-87
2022/10/14 11:16:35;;;;;;;8.30;3.07;;;;;;;26.23;nan;101874.94;6221470;23;20403;-88
2022/10/14 11:19:12;;;;;;;8.93;2.33;;;;;;;26.29;nan;101862.63;6221255;23;20407;-86
2022/10/14 11:22:15;;;;;;;11.30;2.93;;;;;;;26.38;nan;101873.09;6171493;23;20735;-86
2022/10/14 11:24:53;;;;;;;7.43;3.17;;;;;;;26.49;nan;101868.38;6186417;23;20426;-89
2022/10/14 11:27:40;;;;;;;12.60;3.30;;;;;;;26.56;nan;101866.16;6196142;23;20963;-90
2022/10/14 11:30:52;;;;;;;8.90;2.77;;;;;;;26.71;nan;101862.59;6199077;23;20765;-90
2022/10/14 11:33:24;;;;;;;14.30;5.83;;;;;;;26.81;nan;101871.03;6055760;23;20411;-91
2022/10/14 11:36:04;;;;;;;46.60;4.47;;;;;;;26.92;nan;101855.09;6255323;22;20540;-91
2022/10/14 11:38:43;;;;;;;16.37;3.57;;;;;;;27.01;nan;101857.09;6246723;23;20786;-92
2022/10/14 11:41:47;;;;;;;7.93;2.03;;;;;;;27.11;nan;101856.31;6220863;23;20418;-92
2022/10/14 11:44:41;;;;;;;10.57;2.30;;;;;;;27.23;nan;101851.25;6221147;23;20718;-92
2022/10/14 11:47:30;;;;;;;24.10;14.27;;;;;;;27.33;nan;101842.84;6088301;23;20450;-92
2022/10/14 11:50:27;;;;;;;24.83;15.20;;;;;;;27.46;nan;101836.69;6054262;23;20415;-92
2022/10/14 11:53:22;;;;;;;276.37;201.10;;;;;;;27.53;nan;101836.38;6101114;23;20411;-93
2022/10/14 11:59:35;;;;;;;301.63;196.80;;;;;;;27.76;nan;101813.38;6126029;23;20458;-95
2022/10/14 12:05:44;;;;;;;591.37;450.07;;;;;;;27.90;nan;101819.28;6125422;23;20429;-91
2022/10/14 12:08:33;;;;;;;472.83;340.47;;;;;;;27.93;nan;101813.06;6076485;23;20992;-91
2022/10/14 12:11:09;;;;;;;204.20;123.47;;;;;;;27.94;nan;101806.31;6124543;23;20932;-92
2022/10/14 12:13:51;;;;;;;116.70;67.23;;;;;;;27.98;nan;101798.16;6020001;23;20503;-91
2022/10/14 12:16:28;;;;;;;53.03;31.53;;;;;;;28.10;nan;101805.16;6042793;23;20397;-93
2022/10/14 12:18:57;;;;;;;38.80;24.43;;;;;;;28.12;nan;101788.84;6043301;23;20557;-91
2022/10/14 12:21:47;;;;;;;21.53;10.90;;;;;;;28.20;nan;101784.63;6042540;23;20491;-92
2022/10/14 12:24:23;;;;;;;18.00;10.77;;;;;;;28.32;nan;101782.31;6132344;23;20426;-92
2022/10/14 12:27:24;;;;;;;19.20;7.77;;;;;;;28.43;nan;101771.88;6144518;23;20502;-95
2022/10/14 12:30:01;;;;;;;11.30;3.57;;;;;;;28.49;nan;101748.22;6177402;23;20415;-96
2022/10/14 12:33:06;;;;;;;8.07;3.00;;;;;;;28.73;nan;101760.47;6172295;23;20503;-95
2022/10/14 12:39:19;;;;;;;10.70;2.60;;;;;;;28.96;nan;101746.84;6249184;23;20467;-95
2022/10/14 12:42:19;;;;;;;8.10;2.60;;;;;;;29.05;nan;101733.81;6225361;23;20420;-95
2022/10/14 12:45:28;;;;;;;6.67;3.00;;;;;;;29.08;nan;101711.53;6200677;23;20406;-95
2022/10/14 12:48:24;;;;;;;12.30;2.77;;;;;;;29.20;nan;101719.63;6078789;23;20449;-94
2022/10/14 12:51:18;;;;;;;8.93;2.73;;;;;;;29.24;nan;101709.44;6108760;23;20436;-94
2022/10/14 12:53:55;;;;;;;12.13;2.90;;;;;;;29.40;nan;101713.81;6084895;23;20425;-96
2022/10/14 12:56:55;;;;;;;12.23;3.10;;;;;;;29.61;nan;101724.88;6057587;23;20409;-95
2022/10/14 12:59:51;;;;;;;10.33;3.43;;;;;;;29.69;nan;101698.84;6101685;23;20422;-96
2022/10/14 13:02:37;;;;;;;7.20;2.00;;;;;;;29.74;nan;101687.53;6072997;23;20414;-95
2022/10/14 13:05:53;;;;;;;13.20;2.20;;;;;;;29.86;nan;101699.22;6078410;23;20423;-95
2022/10/14 13:08:37;;;;;;;10.20;2.10;;;;;;;29.78;nan;101688.63;6128892;23;20417;-95
2022/10/14 13:11:37;;;;;;;14.23;2.47;;;;;;;29.85;nan;101684.28;6056347;23;20432;-95
2022/10/14 13:14:25;;;;;;;8.40;1.83;;;;;;;29.95;nan;101686.16;6127857;23;20424;-95
2022/10/14 13:17:26;;;;;;;4.20;1.70;;;;;;;29.98;nan;101685.59;6087223;23;20414;-95
2022/10/14 13:20:03;;;;;;;4.47;1.70;;;;;;;29.99;nan;101677.97;6133709;23;20417;-96
2022/10/14 13:22:37;;;;;;;5.70;2.10;;;;;;;29.99;nan;101673.16;6169084;23;20427;-95
2022/10/14 13:25:17;;;;;;;9.30;1.97;;;;;;;29.98;nan;101660.22;6208904;23;20416;-96
2022/10/14 13:28:15;;;;;;;6.27;1.50;;;;;;;30.07;nan;101658.38;6185016;23;20473;-95
2022/10/14 13:30:59;;;;;;;5.10;2.00;;;;;;;30.04;nan;101664.63;6216487;23;20463;-95
2022/10/14 13:33:34;;;;;;;17.27;3.03;;;;;;;30.06;nan;101661.50;6185754;23;20402;-96
2022/10/14 13:36:17;;;;;;;13.93;2.40;;;;;;;29.97;nan;101637.91;6208859;23;20412;-95
2022/10/14 13:38:59;;;;;;;10.03;2.70;;;;;;;30.01;nan;101645.50;6180995;23;20419;-96
2022/10/14 13:41:33;;;;;;;8.70;2.33;;;;;;;30.02;nan;101647.16;6207455;23;20409;-96
2022/10/14 13:44:02;;;;;;;6.70;2.77;;;;;;;29.95;nan;101643.00;6215163;23;20412;-95
2022/10/14 13:46:48;;;;;;;14.33;3.00;;;;;;;29.93;nan;101651.78;6188681;23;20440;-96
2022/10/14 13:49:34;;;;;;;9.13;2.33;;;;;;;29.82;nan;101636.13;6102404;23;20421;-96
2022/10/14 13:52:27;;;;;;;10.20;2.40;;;;;;;29.80;nan;101638.41;6091230;23;21024;-96
2022/10/14 13:55:18;;;;;;;10.47;3.10;;;;;;;29.75;nan;101632.84;6088721;23;20425;-96
2022/10/14 13:58:11;;;;;;;6.40;2.33;;;;;;;29.73;nan;101626.66;6113810;23;20406;-96
2022/10/14 14:01:03;;;;;;;26.33;3.93;;;;;;;29.71;nan;101612.03;6089565;23;20597;-95
2022/10/14 14:03:38;;;;;;;20.57;3.60;;;;;;;29.74;nan;101622.69;6088152;23;20424;-95
2022/10/14 14:06:17;;;;;;;6.73;2.30;;;;;;;29.61;nan;101609.34;6088240;23;20486;-96
2022/10/14 14:09:37;;;;;;;7.50;2.40;;;;;;;29.51;nan;101611.13;6205610;23;20463;-94
2022/10/14 14:12:12;;;;;;;9.63;2.20;;;;;;;29.36;nan;101600.03;6226758;23;20417;-96
2022/10/14 14:15:30;;;;;;;7.87;2.20;;;;;;;29.26;nan;101605.75;6199901;23;20417;-93
2022/10/14 14:18:42;;;;;;;6.30;2.43;;;;;;;29.20;nan;101585.28;6182633;23;20419;-93
2022/10/14 14:22:09;;;;;;;7.87;2.63;;;;;;;29.20;nan;101584.44;6225581;23;20422;-94
2022/10/14 14:25:23;;;;;;;8.87;2.70;;;;;;;29.04;nan;101597.00;6222886;23;20442;-94
2022/10/14 14:28:16;;;;;;;6.20;2.20;;;;;;;28.84;nan;101572.72;6229344;23;20434;-95
2022/10/14 14:31:29;;;;;;;7.60;2.17;;;;;;;28.91;nan;101583.59;6176574;23;20466;-95
2022/10/14 14:35:20;;;;;;;8.33;1.90;;;;;;;28.81;nan;101576.09;6201973;23;20395;-94
2022/10/14 14:39:00;;;;;;;;;;;;;;;;;;;;;
2022/10/14 14:41:57;;;;;;;5.20;2.03;;;;;;;28.72;nan;101581.50;6225417;23;20437;-96
2022/10/14 14:44:45;;;;;;;20.03;3.37;;;;;;;28.61;nan;101560.22;6171058;23;20728;-95
2022/10/14 14:47:28;;;;;;;12.33;2.73;;;;;;;28.52;nan;101556.34;6197627;23;20445;-95
2022/10/14 14:50:48;;;;;;;14.53;2.80;;;;;;;28.59;nan;101578.53;6198917;23;20403;-94
2022/10/14 14:53:28;;;;;;;8.00;1.80;;;;;;;28.37;nan;101551.69;6171467;23;20898;-95
2022/10/14 14:55:59;;;;;;;6.87;2.40;;;;;;;28.39;nan;101573.91;6159390;23;20415;-94
2022/10/14 14:58:53;;;;;;;10.63;2.47;;;;;;;28.19;nan;101563.59;6175822;23;20408;-94
2022/10/14 15:01:25;;;;;;;8.33;2.40;;;;;;;28.11;nan;101556.63;6148775;23;20422;-87
2022/10/14 15:04:16;;;;;;;4.83;2.20;;;;;;;28.04;nan;101561.75;6190636;23;20486;-87
2022/10/14 15:06:55;;;;;;;12.87;1.90;;;;;;;27.87;nan;101571.69;6190114;23;20439;-91
2022/10/14 15:09:52;;;;;;;7.70;2.00;;;;;;;27.70;nan;101567.28;6143624;23;20418;-92
2022/10/14 15:12:33;;;;;;;4.03;2.27;;;;;;;27.65;nan;101553.25;6167413;23;20994;-92
2022/10/14 15:18:34;;;;;;;9.07;2.70;;;;;;;27.36;nan;101555.03;6217780;23;20391;-91
2022/10/14 15:21:18;;;;;;;8.20;3.27;;;;;;;27.39;nan;101546.88;6167227;23;20478;-90
2022/10/14 15:24:21;;;;;;;7.20;3.60;;;;;;;27.33;nan;101545.19;6166833;23;20472;-91
2022/10/14 15:27:26;;;;;;;7.93;2.80;;;;;;;27.24;nan;101546.94;6191661;23;20426;-92
2022/10/14 15:30:20;;;;;;;7.03;2.40;;;;;;;27.11;nan;101550.34;6217966;23;20391;-91
2022/10/14 15:32:48;;;;;;;6.83;2.57;;;;;;;26.98;nan;101548.13;6209905;23;20506;-91
2022/10/14 15:35:17;;;;;;;4.33;2.33;;;;;;;26.95;nan;101537.44;6171428;23;20474;-88
2022/10/14 15:37:49;;;;;;;5.93;2.77;;;;;;;27.04;nan;101544.19;6195237;23;20470;-88
2022/10/14 15:40:40;;;;;;;5.03;2.57;;;;;;;26.74;nan;101548.72;6220415;23;20501;-88
2022/10/14 15:43:12;;;;;;;6.23;2.50;;;;;;;26.50;nan;101530.78;6224322;23;20901;-88
2022/10/14 15:45:45;;;;;;;6.87;2.60;;;;;;;26.43;nan;101533.84;6197527;23;20785;-88
2022/10/14 15:48:18;;;;;;;5.40;2.90;;;;;;;26.45;nan;101539.16;6220518;23;20556;-89
2022/10/14 15:50:46;;;;;;;6.47;3.00;;;;;;;26.39;nan;101520.66;6195350;23;20941;-88
2022/10/14 15:53:16;;;;;;;6.70;2.67;;;;;;;26.41;nan;101532.44;6195408;23;20556;-88
2022/10/14 15:55:43;;;;;;;7.80;3.07;;;;;;;26.34;nan;101515.06;6194955;23;20399;-88
2022/10/14 15:58:11;;;;;;;5.63;2.90;;;;;;;26.46;nan;101529.63;6170686;23;20418;-88